createdAt,value
2023-02-24T00:01:39.978Z,16.73
2023-02-24T00:04:11.238Z,16.77
2023-02-24T00:06:43.898Z,15.70
2023-02-24T00:09:13.243Z,17.40
2023-02-24T00:11:41.912Z,17.52
2023-02-24T00:14:09.430Z,17.67
2023-02-24T00:16:37.698Z,18.05
2023-02-24T00:19:07.589Z,18.17
2023-02-24T00:21:34.991Z,17.40
2023-02-24T00:24:01.790Z,18.33
2023-02-24T00:26:29.938Z,19.73
2023-02-24T00:28:57.213Z,18.88
2023-02-24T00:31:24.557Z,19.20
2023-02-24T00:33:51.382Z,18.77
2023-02-24T00:36:24.195Z,20.08
2023-02-24T00:38:57.894Z,20.13
2023-02-24T00:41:29.322Z,20.45
2023-02-24T00:44:06.140Z,19.58
2023-02-24T00:46:37.238Z,20.42
2023-02-24T00:49:05.708Z,16.80
2023-02-24T00:51:36.061Z,21.17
2023-02-24T00:54:02.719Z,22.15
2023-02-24T00:56:29.838Z,20.92
2023-02-24T00:58:57.556Z,21.83
2023-02-24T01:01:25.896Z,23.42
2023-02-24T01:03:54.784Z,21.60
2023-02-24T01:06:22.902Z,23.05
2023-02-24T01:08:50.435Z,23.08
2023-02-24T01:11:36.417Z,23.52
2023-02-24T01:14:07.015Z,23.45
2023-02-24T01:16:34.376Z,24.10
2023-02-24T01:19:01.513Z,24.80
2023-02-24T01:21:28.152Z,23.42
2023-02-24T01:23:54.757Z,24.25
2023-02-24T01:26:21.444Z,24.40
2023-02-24T01:28:48.224Z,25.90
2023-02-24T01:31:18.601Z,24.83
2023-02-24T01:33:45.978Z,22.70
2023-02-24T01:36:17.683Z,23.35
2023-02-24T01:38:44.904Z,22.80
2023-02-24T01:41:13.401Z,22.90
2023-02-24T01:44:14.014Z,21.85
2023-02-24T01:46:42.173Z,24.60
2023-02-24T01:49:17.085Z,23.95
2023-02-24T01:51:51.808Z,24.45
2023-02-24T01:54:21.275Z,25.15
2023-02-24T01:56:49.188Z,25.75
2023-02-24T01:59:18.745Z,23.50
2023-02-24T02:01:46.159Z,24.92
2023-02-24T02:04:18.449Z,24.88
2023-02-24T02:06:45.566Z,26.05
2023-02-24T02:09:15.352Z,27.55
2023-02-24T02:11:42.748Z,25.17
2023-02-24T02:14:09.646Z,24.70
2023-02-24T02:16:36.170Z,25.88
2023-02-24T02:19:05.468Z,25.55
2023-02-24T02:21:36.353Z,24.77
2023-02-24T02:24:22.128Z,25.77
2023-02-24T02:27:14.737Z,25.15
2023-02-24T02:29:47.891Z,24.63
2023-02-24T02:32:32.878Z,24.90
2023-02-24T02:35:11.418Z,23.95
2023-02-24T02:37:51.054Z,23.55
2023-02-24T02:40:26.480Z,25.33
2023-02-24T02:42:57.868Z,24.77
2023-02-24T02:45:24.633Z,22.13
2023-02-24T02:47:54.162Z,23.63
2023-02-24T02:50:29.355Z,22.65
2023-02-24T02:52:58.043Z,21.05
2023-02-24T02:55:30.663Z,21.52
2023-02-24T02:57:58.391Z,20.60
2023-02-24T03:00:37.296Z,19.85
2023-02-24T03:03:14.040Z,21.23
2023-02-24T03:05:49.693Z,22.13
2023-02-24T03:08:19.139Z,21.73
2023-02-24T03:10:50.879Z,20.63
2023-02-24T03:13:23.855Z,20.17
2023-02-24T03:15:51.869Z,20.40
2023-02-24T03:18:29.099Z,20.23
2023-02-24T03:20:59.196Z,19.65
2023-02-24T03:23:29.258Z,19.35
2023-02-24T03:26:08.849Z,19.98
2023-02-24T03:28:37.448Z,20.10
2023-02-24T03:31:10.113Z,20.67
2023-02-24T03:33:50.407Z,21.20
2023-02-24T03:36:16.887Z,20.77
2023-02-24T03:38:43.816Z,22.55
2023-02-24T03:41:13.568Z,21.40
2023-02-24T03:43:42.540Z,19.80
2023-02-24T03:46:09.070Z,21.25
2023-02-24T03:48:38.335Z,22.08
2023-02-24T03:51:05.001Z,18.75
2023-02-24T03:53:43.890Z,20.88
2023-02-24T03:56:22.293Z,19.40
2023-02-24T03:58:54.817Z,20.33
2023-02-24T04:01:27.119Z,21.25
2023-02-24T04:03:54.476Z,20.30
2023-02-24T04:06:24.069Z,20.80
2023-02-24T04:09:01.812Z,21.33
2023-02-24T04:11:37.518Z,19.88
2023-02-24T04:14:09.942Z,19.88
2023-02-24T04:16:44.421Z,20.17
2023-02-24T04:19:14.132Z,20.30
2023-02-24T04:21:43.128Z,19.45
2023-02-24T04:24:15.198Z,20.08
2023-02-24T04:26:44.804Z,20.13
2023-02-24T04:29:17.604Z,19.38
2023-02-24T04:31:48.167Z,18.95
2023-02-24T04:34:20.175Z,19.05
2023-02-24T04:36:49.565Z,20.38
2023-02-24T04:39:19.997Z,19.88
2023-02-24T04:41:49.390Z,18.95
2023-02-24T04:44:19.812Z,19.40
2023-02-24T04:46:46.546Z,19.55
2023-02-24T04:49:13.505Z,18.48
2023-02-24T04:51:42.684Z,18.52
2023-02-24T04:54:09.959Z,18.48
2023-02-24T04:56:37.010Z,18.67
2023-02-24T04:59:03.798Z,18.15
2023-02-24T05:01:31.314Z,18.60
2023-02-24T05:03:57.769Z,18.63
2023-02-24T05:06:24.310Z,19.40
2023-02-24T05:08:52.561Z,18.90
2023-02-24T05:11:19.691Z,18.77
2023-02-24T05:13:46.978Z,18.63
2023-02-24T05:16:15.167Z,19.33
2023-02-24T05:18:42.666Z,18.90
2023-02-24T05:21:29.206Z,19.98
2023-02-24T05:23:55.835Z,19.10
2023-02-24T05:26:25.709Z,20.33
2023-02-24T05:28:53.241Z,18.65
2023-02-24T05:31:21.770Z,17.30
2023-02-24T05:33:49.313Z,18.75
2023-02-24T05:36:19.867Z,19.50
2023-02-24T05:38:56.588Z,19.13
2023-02-24T05:41:23.718Z,18.77
2023-02-24T05:43:54.918Z,18.77
2023-02-24T05:46:28.417Z,19.30
2023-02-24T05:48:56.981Z,21.50
2023-02-24T05:51:24.576Z,20.33
2023-02-24T05:53:55.646Z,19.63
2023-02-24T05:56:23.366Z,15.43
2023-02-24T05:59:02.034Z,18.00
2023-02-24T06:01:32.874Z,19.80
2023-02-24T06:04:05.940Z,19.42
2023-02-24T06:06:36.341Z,20.65
2023-02-24T06:09:08.179Z,18.67
2023-02-24T06:14:01.995Z,18.80
2023-02-24T06:16:28.711Z,18.48
2023-02-24T06:18:57.985Z,18.88
2023-02-24T06:21:29.297Z,19.00
2023-02-24T06:23:57.427Z,19.83
2023-02-24T06:26:29.978Z,18.50
2023-02-24T06:28:57.442Z,21.23
2023-02-24T06:31:24.262Z,18.63
2023-02-24T06:33:53.202Z,18.92
2023-02-24T06:36:20.614Z,19.85
2023-02-24T06:38:47.324Z,19.17
2023-02-24T06:41:13.899Z,19.45
2023-02-24T06:43:41.264Z,20.20
2023-02-24T06:46:07.861Z,20.42
2023-02-24T06:48:34.652Z,18.88
2023-02-24T06:51:11.217Z,19.63
2023-02-24T06:53:43.171Z,17.92
2023-02-24T06:56:19.785Z,18.40
2023-02-24T06:58:47.808Z,17.38
2023-02-24T07:01:15.726Z,18.13
2023-02-24T07:04:02.741Z,18.80
2023-02-24T07:06:34.508Z,17.75
2023-02-24T07:09:13.721Z,18.73
2023-02-24T07:11:46.858Z,18.55
2023-02-24T07:14:13.459Z,18.05
2023-02-24T07:16:45.676Z,19.05
2023-02-24T07:19:15.836Z,18.27
2023-02-24T07:21:52.808Z,18.23
2023-02-24T07:24:25.146Z,18.67
2023-02-24T07:26:56.385Z,17.23
2023-02-24T07:29:23.643Z,17.63
2023-02-24T07:31:50.245Z,16.92
2023-02-24T07:34:23.553Z,17.15
2023-02-24T07:36:50.796Z,16.33
2023-02-24T07:39:17.980Z,15.82
2023-02-24T07:41:49.628Z,15.48
2023-02-24T07:44:19.794Z,15.75
2023-02-24T07:46:49.238Z,16.50
2023-02-24T07:49:18.439Z,16.30
2023-02-24T07:51:44.984Z,14.68
2023-02-24T07:54:11.708Z,16.38
2023-02-24T07:56:46.152Z,15.93
2023-02-24T07:59:15.703Z,16.95
2023-02-24T08:01:49.803Z,18.23
2023-02-24T08:04:20.461Z,17.17
2023-02-24T08:06:50.316Z,18.02
2023-02-24T08:09:18.319Z,18.30
2023-02-24T08:11:46.053Z,18.40
2023-02-24T08:14:16.481Z,17.52
2023-02-24T08:16:43.340Z,18.10
2023-02-24T08:19:14.406Z,16.85
2023-02-24T08:21:41.719Z,17.42
2023-02-24T08:24:17.629Z,15.98
2023-02-24T08:26:53.846Z,16.15
2023-02-24T08:29:20.586Z,16.80
2023-02-24T08:31:47.715Z,15.90
2023-02-24T08:34:16.143Z,16.75
2023-02-24T08:36:48.478Z,17.65
2023-02-24T08:39:15.154Z,17.05
2023-02-24T08:41:51.472Z,18.90
2023-02-24T08:44:20.500Z,17.02
2023-02-24T08:46:49.435Z,15.60
2023-02-24T08:49:19.688Z,17.38
2023-02-24T08:51:47.464Z,16.05
2023-02-24T08:54:17.218Z,17.85
2023-02-24T08:56:49.091Z,18.30
2023-02-24T08:59:29.282Z,19.70
2023-02-24T09:02:16.950Z,18.48
2023-02-24T09:04:45.018Z,17.77
2023-02-24T09:07:15.909Z,18.23
2023-02-24T09:09:42.983Z,17.70
2023-02-24T09:12:21.736Z,27.60
2023-02-24T09:14:49.649Z,16.13
2023-02-24T09:17:20.735Z,15.73
2023-02-24T09:19:51.464Z,14.27
2023-02-24T09:22:37.707Z,14.25
2023-02-24T09:25:40.545Z,14.18
2023-02-24T09:28:09.118Z,13.90
2023-02-24T09:30:37.620Z,14.07
2023-02-24T09:33:18.441Z,15.10
2023-02-24T09:35:46.899Z,14.90
2023-02-24T09:38:16.805Z,15.52
2023-02-24T09:40:50.369Z,14.85
2023-02-24T09:43:19.293Z,13.93
2023-02-24T09:45:58.449Z,13.27
2023-02-24T09:48:32.065Z,14.15
2023-02-24T09:51:05.182Z,11.90
2023-02-24T09:53:41.207Z,13.52
2023-02-24T09:56:16.667Z,12.82
2023-02-24T09:58:47.818Z,12.65
2023-02-24T10:01:31.159Z,14.57
2023-02-24T10:04:15.001Z,13.82
2023-02-24T10:06:47.876Z,14.00
2023-02-24T17:24:13.253Z,21.02
2023-02-24T17:26:39.693Z,19.92
2023-02-24T17:29:06.157Z,22.95
2023-02-24T17:31:33.104Z,30.85
2023-02-24T17:33:59.614Z,40.58
2023-02-24T17:36:26.115Z,41.58
2023-02-24T17:38:53.128Z,43.70
2023-02-24T17:41:19.670Z,49.80
2023-02-24T17:43:46.165Z,47.45
2023-02-24T17:46:12.676Z,45.35
2023-02-24T17:48:39.123Z,43.63
2023-02-24T17:51:05.696Z,41.10
2023-02-24T17:53:32.299Z,40.10
2023-02-24T17:56:08.103Z,39.80
2023-02-24T17:58:34.948Z,40.20
2023-02-24T18:01:02.367Z,39.53
2023-02-24T18:03:30.230Z,42.45
2023-02-24T18:06:04.372Z,43.88
2023-02-24T18:08:32.096Z,61.38
2023-02-24T18:10:59.271Z,65.80
2023-02-24T18:13:26.282Z,65.18
2023-02-24T18:15:52.750Z,69.93
2023-02-24T18:18:19.409Z,87.22
2023-02-24T18:20:45.829Z,121.70
2023-02-24T18:23:12.440Z,113.38
2023-02-24T18:25:38.920Z,177.02
2023-02-24T18:28:05.482Z,404.40
2023-02-24T18:30:32.379Z,131.23
2023-02-24T18:32:59.159Z,107.93
2023-02-24T18:35:25.896Z,60.00
2023-02-24T18:37:58.388Z,45.33
2023-02-24T18:40:28.891Z,42.63
2023-02-24T18:42:55.754Z,44.65
2023-02-24T18:45:23.127Z,40.70
2023-02-24T18:47:53.044Z,37.00
2023-02-24T18:50:20.634Z,42.78
2023-02-24T18:52:47.128Z,52.58
2023-02-24T18:55:13.560Z,41.08
2023-02-24T18:57:40.756Z,36.38
2023-02-24T19:00:07.460Z,26.98
2023-02-24T19:02:33.929Z,26.15
2023-02-24T19:05:00.437Z,22.17
2023-02-24T19:07:27.057Z,18.10
2023-02-24T19:09:53.618Z,19.02
2023-02-24T19:12:21.393Z,18.15
2023-02-24T19:14:50.814Z,18.30
2023-02-24T19:17:17.234Z,15.48
2023-02-24T19:19:43.800Z,17.25
2023-02-24T19:22:10.314Z,17.13
2023-02-24T19:24:36.784Z,17.52
2023-02-24T19:27:03.209Z,14.57
2023-02-24T19:29:30.183Z,16.17
2023-02-24T19:31:58.170Z,13.82
2023-02-24T19:34:24.845Z,15.68
2023-02-24T19:36:51.370Z,17.48
2023-02-24T19:39:17.856Z,16.15
2023-02-24T19:41:44.317Z,15.30
2023-02-24T19:44:11.213Z,15.15
2023-02-24T19:46:38.798Z,14.63
2023-02-24T19:49:05.323Z,15.35
2023-02-24T19:51:31.962Z,15.27
2023-02-24T19:53:59.590Z,16.40
2023-02-24T19:56:28.727Z,16.08
2023-02-24T19:58:55.882Z,16.02
2023-02-24T20:01:23.039Z,16.55
2023-02-24T20:03:50.279Z,16.98
2023-02-24T20:06:21.163Z,15.95
2023-02-24T20:08:48.140Z,15.17
2023-02-24T20:11:14.905Z,16.52
2023-02-24T20:13:41.427Z,16.20
2023-02-24T20:16:09.522Z,15.63
2023-02-24T20:18:36.013Z,17.10
2023-02-24T20:21:02.622Z,16.35
2023-02-24T20:23:29.413Z,18.77
2023-02-24T20:25:56.431Z,16.67
2023-02-24T20:28:23.155Z,19.08
2023-02-24T20:30:50.035Z,16.15
2023-02-24T20:33:17.533Z,17.25
2023-02-24T20:35:44.297Z,17.83
2023-02-24T20:38:11.175Z,17.23
2023-02-24T20:40:37.698Z,18.45
2023-02-24T20:43:04.968Z,17.98
2023-02-24T20:45:32.191Z,16.92
2023-02-24T20:47:58.725Z,16.98
2023-02-24T20:50:25.464Z,17.75
2023-02-24T20:52:51.885Z,16.40
2023-02-24T20:55:18.663Z,16.23
2023-02-24T20:57:45.239Z,16.77
2023-02-24T21:00:12.018Z,15.90
2023-02-24T21:02:41.138Z,17.40
2023-02-24T21:05:08.508Z,16.85
2023-02-24T21:07:36.955Z,17.17
2023-02-24T21:10:04.069Z,16.00
2023-02-24T21:12:30.626Z,17.17
2023-02-24T21:14:57.058Z,17.52
2023-02-24T21:17:23.544Z,17.73
2023-02-24T21:19:50.026Z,18.25
2023-02-24T21:22:16.573Z,16.70
2023-02-24T21:24:43.045Z,17.15
2023-02-24T21:27:10.022Z,14.85
2023-02-24T21:29:36.532Z,16.60
2023-02-24T21:32:03.389Z,15.73
2023-02-24T21:34:30.644Z,15.93
2023-02-24T21:36:57.148Z,15.13
2023-02-24T21:39:23.565Z,16.25
2023-02-24T21:41:50.106Z,15.90
2023-02-24T21:44:16.573Z,17.30
2023-02-24T21:46:43.233Z,17.20
2023-02-24T21:49:14.426Z,17.05
2023-02-24T21:51:42.090Z,16.33
2023-02-24T21:54:08.795Z,15.75
2023-02-24T21:56:35.325Z,15.25
2023-02-24T21:59:05.838Z,15.07
2023-02-24T22:01:37.187Z,15.10
2023-02-24T22:04:05.586Z,14.40
2023-02-24T22:06:33.803Z,12.85
2023-02-24T22:09:00.916Z,13.88
2023-02-24T22:11:29.307Z,13.57
2023-02-24T22:13:55.876Z,12.65
2023-02-24T22:16:23.930Z,12.48
2023-02-24T22:18:51.226Z,12.98
2023-02-24T22:21:19.271Z,11.27
2023-02-24T22:23:47.569Z,11.32
2023-02-24T22:26:14.697Z,11.98
2023-02-24T22:28:42.117Z,11.65
2023-02-24T22:31:09.834Z,11.80
2023-02-24T22:33:38.356Z,10.02
2023-02-24T22:36:06.579Z,10.43
2023-02-24T22:38:33.466Z,10.55
2023-02-24T22:41:00.968Z,11.55
2023-02-24T22:43:28.688Z,10.82
2023-02-24T22:45:58.636Z,11.32
2023-02-24T22:48:26.627Z,11.30
2023-02-24T22:50:57.198Z,11.43
2023-02-24T22:53:24.664Z,10.57
2023-02-24T22:55:51.447Z,9.65
2023-02-24T22:58:18.899Z,11.35
2023-02-24T23:00:46.429Z,10.82
2023-02-24T23:03:14.089Z,11.35
2023-02-24T23:05:41.027Z,10.43
2023-02-24T23:08:08.162Z,9.88
2023-02-24T23:10:34.988Z,10.27
2023-02-24T23:13:01.479Z,9.48
2023-02-24T23:15:27.910Z,9.13
2023-02-24T23:17:55.310Z,10.27
2023-02-24T23:20:21.721Z,10.48
2023-02-24T23:22:52.500Z,9.07
2023-02-24T23:25:20.059Z,9.50
2023-02-24T23:27:46.565Z,9.77
2023-02-24T23:30:13.102Z,9.20
2023-02-24T23:32:39.640Z,9.30
2023-02-24T23:35:06.308Z,8.50
2023-02-24T23:37:32.816Z,9.15
2023-02-24T23:39:59.315Z,9.15
2023-02-24T23:42:25.796Z,10.43
2023-02-24T23:44:52.729Z,9.10
2023-02-24T23:47:19.280Z,9.25
2023-02-24T23:49:48.450Z,10.23
2023-02-24T23:52:15.374Z,9.27
2023-02-24T23:54:41.835Z,9.88
2023-02-24T23:57:08.382Z,10.63
2023-02-24T23:59:34.904Z,8.38
